Time;durP1;ratioP1;P1;durP2;ratioP2;P2;SDS_P1;SDS_P2;PMS_P1;PMS_P2;Temp;Humidity;BMP_temperature;BMP_pressure;BME280_temperature;BME280_humidity;BME280_pressure;Samples;Min_cycle;Max_cycle;Signal;HPM_P1;HPM_P2
2022/04/09 00:02:22;;;;;;;;;;;14.60;98.70;;;;;;6214487;23;19904;-71
2022/04/09 00:04:48;;;;;;;;;;;14.60;99.00;;;;;;6213974;23;19904;-70
2022/04/09 00:07:14;;;;;;;;;;;14.60;99.40;;;;;;6214235;23;19908;-71
2022/04/09 00:09:40;;;;;;;;;;;14.50;99.70;;;;;;6217307;23;20282;-70
2022/04/09 00:12:06;;;;;;;;;;;14.50;99.90;;;;;;6244357;23;19954;-71
2022/04/09 00:14:32;;;;;;;;;;;14.40;99.90;;;;;;6244251;23;19904;-71
2022/04/09 00:16:57;;;;;;;;;;;14.40;99.90;;;;;;6244600;23;19904;-71
2022/04/09 00:19:23;;;;;;;;;;;14.40;99.90;;;;;;6243989;23;20313;-70
2022/04/09 00:21:49;;;;;;;;;;;14.40;99.90;;;;;;6244435;23;19981;-71
2022/04/09 00:24:15;;;;;;;;;;;14.30;99.90;;;;;;6244423;23;19931;-70
2022/04/09 00:26:43;;;;;;;;;;;14.30;99.90;;;;;;6243004;23;20421;-72
2022/04/09 00:29:09;;;;;;;;;;;14.30;99.90;;;;;;6244027;23;19911;-70
2022/04/09 00:31:35;;;;;;;;;;;14.30;99.90;;;;;;6243761;23;19974;-70
2022/04/09 00:34:01;;;;;;;;;;;14.30;99.90;;;;;;6243495;23;19998;-70
2022/04/09 00:36:26;;;;;;;;;;;14.20;99.90;;;;;;6244288;23;19904;-70
2022/04/09 00:38:52;;;;;;;;;;;14.20;99.90;;;;;;6243768;23;19911;-70
2022/04/09 00:41:18;;;;;;;;;;;14.10;99.90;;;;;;6243893;23;19949;-69
2022/04/09 00:43:44;;;;;;;;;;;14.20;99.90;;;;;;6243119;23;19904;-69
2022/04/09 00:46:11;;;;;;;;;;;14.10;99.90;;;;;;6216549;23;19907;-70
2022/04/09 00:48:37;;;;;;;;;;;14.10;99.90;;;;;;6243960;23;20224;-72
2022/04/09 00:51:03;;;;;;;;;;;14.00;99.90;;;;;;6243531;23;20336;-70
2022/04/09 00:53:33;;;;;;;;;;;14.00;99.90;;;;;;6243844;23;20218;-68
2022/04/09 00:56:20;;;;;;;;;;;14.00;99.90;;;;;;6243581;23;19904;-70
2022/04/09 00:58:54;;;;;;;;;;;14.00;99.90;;;;;;6243768;23;19904;-69
2022/04/09 01:01:20;;;;;;;;;;;13.90;99.90;;;;;;6243550;23;19907;-68
2022/04/09 01:03:47;;;;;;;;;;;13.90;99.90;;;;;;6243507;23;19935;-70
2022/04/09 01:06:12;;;;;;;;;;;13.80;99.90;;;;;;6243873;23;20001;-70
2022/04/09 01:08:38;;;;;;;;;;;13.80;99.90;;;;;;6243328;23;20301;-70
2022/04/09 01:11:04;;;;;;;;;;;13.80;99.90;;;;;;6243338;23;19985;-70
2022/04/09 01:13:30;;;;;;;;;;;13.80;99.90;;;;;;6243749;23;20061;-70
2022/04/09 01:15:56;;;;;;;;;;;13.80;99.90;;;;;;6243690;23;19911;-70
2022/04/09 01:18:22;;;;;;;;;;;13.70;99.90;;;;;;6243816;23;20304;-71
2022/04/09 01:20:48;;;;;;;;;;;13.70;99.90;;;;;;6243562;23;20374;-70
2022/04/09 01:23:13;;;;;;;;;;;13.70;99.90;;;;;;6243347;23;19904;-70
2022/04/09 01:25:41;;;;;;;;;;;13.70;99.90;;;;;;6243538;23;19904;-70
2022/04/09 01:28:07;;;;;;;;;;;13.70;99.90;;;;;;6243343;23;19923;-70
2022/04/09 01:30:32;;;;;;;;;;;13.70;99.90;;;;;;6216427;23;19930;-69
2022/04/09 01:32:58;;;;;;;;;;;13.70;99.90;;;;;;6243889;23;19986;-69
2022/04/09 01:35:24;;;;;;;;;;;13.80;99.90;;;;;;6243421;23;19943;-69
2022/04/09 01:37:50;;;;;;;;;;;13.80;99.90;;;;;;6243119;23;19907;-70
2022/04/09 01:40:16;;;;;;;;;;;13.90;99.90;;;;;;6243051;23;20003;-70
2022/04/09 01:42:41;;;;;;;;;;;13.90;99.90;;;;;;6243843;23;20173;-70
2022/04/09 01:45:09;;;;;;;;;;;14.00;99.90;;;;;;6243662;23;20225;-70
2022/04/09 01:47:36;;;;;;;;;;;14.10;99.90;;;;;;6243601;23;19908;-70
2022/04/09 01:50:03;;;;;;;;;;;14.10;99.90;;;;;;6243248;23;19908;-68
2022/04/09 01:52:29;;;;;;;;;;;14.20;99.90;;;;;;6243736;23;19986;-68
2022/04/09 01:54:55;;;;;;;;;;;14.20;99.90;;;;;;6243280;23;19904;-70
2022/04/09 01:57:21;;;;;;;;;;;14.20;99.90;;;;;;6243089;23;19938;-68
2022/04/09 01:59:46;;;;;;;;;;;14.20;99.90;;;;;;6243460;23;19910;-71
2022/04/09 02:02:12;;;;;;;;;;;14.20;99.90;;;;;;6216553;23;20170;-71
2022/04/09 02:04:38;;;;;;;;;;;14.20;99.90;;;;;;6243248;23;19903;-70
2022/04/09 02:07:04;;;;;;;;;;;14.20;99.90;;;;;;6242969;23;19904;-71
2022/04/09 02:09:30;;;;;;;;;;;14.10;99.90;;;;;;6243328;23;19974;-71
2022/04/09 02:11:56;;;;;;;;;;;14.10;99.90;;;;;;6243794;23;19911;-72
2022/04/09 02:14:22;;;;;;;;;;;14.00;99.90;;;;;;6244810;23;19903;-71
2022/04/09 02:16:48;;;;;;;;;;;14.00;99.90;;;;;;6244834;23;19911;-70
2022/04/09 02:19:14;;;;;;;;;;;14.00;99.90;;;;;;6244757;23;19904;-71
2022/04/09 02:21:40;;;;;;;;;;;14.00;99.90;;;;;;6244796;23;19904;-70
2022/04/09 02:24:08;;;;;;;;;;;14.00;99.90;;;;;;6245275;23;19927;-71
2022/04/09 02:26:34;;;;;;;;;;;14.00;99.90;;;;;;6245184;23;19935;-70
2022/04/09 02:29:00;;;;;;;;;;;14.10;99.90;;;;;;6244879;23;20071;-70
2022/04/09 02:31:25;;;;;;;;;;;14.00;99.90;;;;;;6244891;23;20324;-70
2022/04/09 02:33:53;;;;;;;;;;;14.00;99.90;;;;;;6244718;23;20037;-71
2022/04/09 02:36:20;;;;;;;;;;;14.10;99.90;;;;;;6217606;23;19950;-71
2022/04/09 02:38:47;;;;;;;;;;;14.10;99.90;;;;;;6244927;23;20006;-71
2022/04/09 02:41:12;;;;;;;;;;;14.20;99.90;;;;;;6245460;23;19991;-72
2022/04/09 02:43:41;;;;;;;;;;;14.30;99.90;;;;;;6217902;23;19904;-73
2022/04/09 02:46:08;;;;;;;;;;;14.40;99.40;;;;;;6244602;23;20214;-72
2022/04/09 02:48:33;;;;;;;;;;;14.40;99.40;;;;;;6245286;23;19916;-70
2022/04/09 02:50:59;;;;;;;;;;;14.50;99.20;;;;;;6244345;23;20214;-70
2022/04/09 02:53:25;;;;;;;;;;;14.50;99.40;;;;;;6244143;23;19904;-70
2022/04/09 02:55:51;;;;;;;;;;;14.50;99.00;;;;;;6244084;23;20233;-69
2022/04/09 02:58:16;;;;;;;;;;;14.50;98.60;;;;;;6245000;23;19903;-68
2022/04/09 03:00:42;;;;;;;;;;;14.60;97.80;;;;;;6245000;23;19904;-72
2022/04/09 03:03:08;;;;;;;;;;;14.70;97.80;;;;;;6244731;23;19911;-70
2022/04/09 03:05:34;;;;;;;;;;;14.70;97.60;;;;;;6245309;23;19981;-68
2022/04/09 03:08:00;;;;;;;;;;;14.70;97.40;;;;;;6245201;23;19930;-68
2022/04/09 03:10:26;;;;;;;;;;;14.70;97.50;;;;;;6245428;23;20321;-68
2022/04/09 03:12:52;;;;;;;;;;;14.70;97.00;;;;;;6245834;23;19904;-68
2022/04/09 03:15:18;;;;;;;;;;;14.70;96.70;;;;;;6246031;23;20045;-69
2022/04/09 03:17:44;;;;;;;;;;;14.80;96.30;;;;;;6245525;23;19904;-70
2022/04/09 03:20:10;;;;;;;;;;;14.80;96.00;;;;;;6245316;23;19904;-70
2022/04/09 03:22:36;;;;;;;;;;;14.80;96.00;;;;;;6245116;23;19911;-68
2022/04/09 03:25:02;;;;;;;;;;;14.80;95.70;;;;;;6246171;23;19995;-68
2022/04/09 03:27:29;;;;;;;;;;;14.80;95.90;;;;;;6218916;23;19908;-68
2022/04/09 03:29:55;;;;;;;;;;;14.80;96.00;;;;;;6245535;23;19912;-70
2022/04/09 03:32:21;;;;;;;;;;;14.70;95.90;;;;;;6246199;23;20202;-71
2022/04/09 03:34:47;;;;;;;;;;;14.70;96.00;;;;;;6245401;23;19904;-70
2022/04/09 03:37:13;;;;;;;;;;;14.70;96.50;;;;;;6245574;23;19949;-72
2022/04/09 03:39:41;;;;;;;;;;;14.60;96.90;;;;;;6246017;23;19903;-71
2022/04/09 03:42:07;;;;;;;;;;;14.50;97.50;;;;;;6245469;23;19910;-72
2022/04/09 03:44:33;;;;;;;;;;;14.40;97.80;;;;;;6245501;23;20367;-71
2022/04/09 03:46:59;;;;;;;;;;;14.40;97.70;;;;;;6246409;23;19904;-72
2022/04/09 03:49:25;;;;;;;;;;;14.40;97.70;;;;;;6245449;23;20198;-71
2022/04/09 03:51:51;;;;;;;;;;;14.30;97.80;;;;;;6245768;23;20335;-71
2022/04/09 03:54:17;;;;;;;;;;;14.30;97.60;;;;;;6245678;23;20015;-71
2022/04/09 03:56:43;;;;;;;;;;;14.20;97.40;;;;;;6245475;23;19904;-71
2022/04/09 03:59:09;;;;;;;;;;;14.20;97.40;;;;;;6245930;23;19911;-70
2022/04/09 04:01:36;;;;;;;;;;;14.20;97.20;;;;;;6245536;23;19911;-71
2022/04/09 04:04:02;;;;;;;;;;;14.20;97.20;;;;;;6245880;23;19990;-70
2022/04/09 04:06:27;;;;;;;;;;;14.20;97.30;;;;;;6245503;23;19904;-71
2022/04/09 04:08:55;;;;;;;;;;;14.20;97.60;;;;;;6245713;23;19970;-70
2022/04/09 04:11:22;;;;;;;;;;;14.20;97.60;;;;;;6213012;23;19927;-70
2022/04/09 04:13:48;;;;;;;;;;;14.20;97.90;;;;;;6214739;23;19981;-70
2022/04/09 04:16:14;;;;;;;;;;;14.10;98.30;;;;;;6215137;23;19915;-71
2022/04/09 04:18:40;;;;;;;;;;;14.10;98.50;;;;;;6216267;23;19959;-71
2022/04/09 04:21:07;;;;;;;;;;;14.10;98.80;;;;;;6216861;23;19911;-71
2022/04/09 04:23:32;;;;;;;;;;;14.00;98.90;;;;;;6216543;23;19904;-71
2022/04/09 04:25:58;;;;;;;;;;;14.00;99.10;;;;;;6216125;23;19911;-71
2022/04/09 04:28:24;;;;;;;;;;;14.00;99.10;;;;;;6216654;23;20056;-70
2022/04/09 04:30:50;;;;;;;;;;;14.00;99.20;;;;;;6216045;23;19911;-70
2022/04/09 04:33:16;;;;;;;;;;;14.00;99.30;;;;;;6216061;23;19994;-69
2022/04/09 04:35:42;;;;;;;;;;;14.00;99.80;;;;;;6216496;23;19908;-69
2022/04/09 04:38:07;;;;;;;;;;;14.00;99.40;;;;;;6216025;23;19911;-69
2022/04/09 04:40:33;;;;;;;;;;;14.00;99.60;;;;;;6216722;23;19904;-70
2022/04/09 04:42:59;;;;;;;;;;;14.00;99.70;;;;;;6216063;23;19904;-69
2022/04/09 04:45:25;;;;;;;;;;;14.00;99.80;;;;;;6215968;23;19904;-71
2022/04/09 04:47:51;;;;;;;;;;;14.10;99.90;;;;;;6214186;23;19959;-70
2022/04/09 04:50:17;;;;;;;;;;;14.10;99.90;;;;;;6216611;23;20329;-70
2022/04/09 04:52:43;;;;;;;;;;;14.10;99.90;;;;;;6215902;23;19911;-71
2022/04/09 04:55:10;;;;;;;;;;;14.10;99.90;;;;;;6216214;23;19903;-70
2022/04/09 04:57:52;;;;;;;;;;;14.10;99.90;;;;;;6215883;23;19904;-71
2022/04/09 05:00:20;;;;;;;;;;;14.10;99.90;;;;;;6216252;23;19904;-70
2022/04/09 05:02:45;;;;;;;;;;;14.10;99.90;;;;;;6215981;23;20240;-70
2022/04/09 05:05:11;;;;;;;;;;;14.20;99.90;;;;;;6214155;23;20313;-70
2022/04/09 05:07:41;;;;;;;;;;;14.30;99.90;;;;;;6215823;23;20325;-70
2022/04/09 05:10:07;;;;;;;;;;;14.30;99.90;;;;;;6225227;23;19911;-70
2022/04/09 05:12:34;;;;;;;;;;;14.40;99.90;;;;;;6246091;23;19946;-70
2022/04/09 05:14:59;;;;;;;;;;;14.40;99.10;;;;;;6245460;23;20232;-70
2022/04/09 05:17:25;;;;;;;;;;;14.50;99.00;;;;;;6246704;23;19991;-70
2022/04/09 05:19:51;;;;;;;;;;;14.50;98.20;;;;;;6246186;23;20271;-69
2022/04/09 05:22:17;;;;;;;;;;;14.60;97.90;;;;;;6246198;23;20375;-70
2022/04/09 05:24:43;;;;;;;;;;;14.80;97.50;;;;;;6246291;23;20293;-70
2022/04/09 05:27:08;;;;;;;;;;;15.50;97.00;;;;;;6246120;23;19935;-70
2022/04/09 05:29:34;;;;;;;;;;;17.00;95.20;;;;;;6245524;23;19908;-70
2022/04/09 05:32:00;;;;;;;;;;;18.80;92.70;;;;;;6245264;23;19904;-70
2022/04/09 05:34:26;;;;;;;;;;;20.90;90.20;;;;;;6245621;23;19958;-71
2022/04/09 05:36:52;;;;;;;;;;;22.80;86.70;;;;;;6244834;23;19903;-70
2022/04/09 05:39:18;;;;;;;;;;;24.60;81.50;;;;;;6245190;23;19907;-71
2022/04/09 05:41:44;;;;;;;;;;;26.20;78.10;;;;;;6246062;23;19910;-72
2022/04/09 05:44:10;;;;;;;;;;;27.50;75.20;;;;;;6245661;23;19904;-72
2022/04/09 05:46:36;;;;;;;;;;;28.20;72.90;;;;;;6245468;23;20042;-72
2022/04/09 05:49:02;;;;;;;;;;;28.40;71.80;;;;;;6246134;23;19966;-72
2022/04/09 05:51:28;;;;;;;;;;;29.10;70.90;;;;;;6246626;23;20291;-72
2022/04/09 05:53:57;;;;;;;;;;;30.00;67.90;;;;;;6247190;23;19903;-71
2022/04/09 05:56:23;;;;;;;;;;;30.90;65.60;;;;;;6246642;23;19915;-71
2022/04/09 05:58:49;;;;;;;;;;;31.40;64.10;;;;;;6247855;23;19903;-72
2022/04/09 06:01:15;;;;;;;;;;;31.60;62.50;;;;;;6247132;23;20217;-72
2022/04/09 06:03:40;;;;;;;;;;;32.00;61.70;;;;;;6246997;23;19904;-70
2022/04/09 06:06:06;;;;;;;;;;;32.60;60.30;;;;;;6246334;23;19904;-72
2022/04/09 06:08:35;;;;;;;;;;;33.20;58.80;;;;;;6246171;23;19912;-71
2022/04/09 06:11:01;;;;;;;;;;;33.70;58.00;;;;;;6245593;23;19915;-70
2022/04/09 06:13:27;;;;;;;;;;;34.40;57.00;;;;;;6246616;23;19907;-68
2022/04/09 06:15:53;;;;;;;;;;;35.10;55.70;;;;;;6245889;23;19903;-70
2022/04/09 06:18:19;;;;;;;;;;;35.50;54.30;;;;;;6246216;23;19911;-70
2022/04/09 06:20:45;;;;;;;;;;;36.10;52.90;;;;;;6246701;23;20197;-69
2022/04/09 06:23:11;;;;;;;;;;;36.50;51.80;;;;;;6245783;23;19908;-70
2022/04/09 06:25:36;;;;;;;;;;;37.00;51.20;;;;;;6246657;23;19961;-69
2022/04/09 06:28:02;;;;;;;;;;;37.30;50.40;;;;;;6246681;23;20313;-73
2022/04/09 06:30:28;;;;;;;;;;;36.60;49.50;;;;;;6246562;23;19950;-70
2022/04/09 06:32:54;;;;;;;;;;;36.60;49.50;;;;;;6246997;23;19908;-70
2022/04/09 06:35:20;;;;;;;;;;;36.50;48.70;;;;;;6219377;23;19911;-69
2022/04/09 06:37:46;;;;;;;;;;;36.60;49.70;;;;;;6246819;23;19907;-72
2022/04/09 06:40:12;;;;;;;;;;;36.70;49.20;;;;;;6246671;23;19904;-71
2022/04/09 06:42:41;;;;;;;;;;;36.40;48.90;;;;;;6246256;23;19904;-71
2022/04/09 06:45:08;;;;;;;;;;;36.90;49.30;;;;;;6246239;23;20262;-70
2022/04/09 06:47:38;;;;;;;;;;;37.30;48.20;;;;;;6246485;23;19907;-71
2022/04/09 06:50:10;;;;;;;;;;;37.90;48.60;;;;;;6246024;23;20016;-70
2022/04/09 06:52:36;;;;;;;;;;;37.90;46.50;;;;;;6246813;23;19910;-70
2022/04/09 06:55:03;;;;;;;;;;;37.20;47.10;;;;;;6246147;23;20320;-70
2022/04/09 06:57:29;;;;;;;;;;;37.50;47.60;;;;;;6246104;23;19908;-71
2022/04/09 06:59:56;;;;;;;;;;;38.20;47.40;;;;;;6246031;23;19926;-71
2022/04/09 07:02:22;;;;;;;;;;;38.50;46.80;;;;;;6245796;23;19911;-72
2022/04/09 07:04:48;;;;;;;;;;;37.70;47.30;;;;;;6245775;23;19904;-69
2022/04/09 07:07:18;;;;;;;;;;;36.60;47.70;;;;;;6245472;23;20242;-70
2022/04/09 07:09:44;;;;;;;;;;;37.00;47.40;;;;;;6246103;23;19950;-70
2022/04/09 07:12:10;;;;;;;;;;;37.40;47.10;;;;;;6246161;23;19915;-70
2022/04/09 07:14:36;;;;;;;;;;;37.70;47.40;;;;;;6245909;23;19904;-70
2022/04/09 07:17:03;;;;;;;;;;;37.90;46.80;;;;;;6246749;23;20004;-69
2022/04/09 07:19:29;;;;;;;;;;;38.00;45.90;;;;;;6246089;23;19938;-69
2022/04/09 07:21:56;;;;;;;;;;;38.10;46.70;;;;;;6245686;23;20217;-70
2022/04/09 07:24:22;;;;;;;;;;;37.20;47.00;;;;;;6246654;23;19918;-71
2022/04/09 07:26:48;;;;;;;;;;;35.90;48.40;;;;;;6245569;23;19904;-69
2022/04/09 07:29:14;;;;;;;;;;;34.70;49.50;;;;;;6218799;23;20232;-70
2022/04/09 07:31:40;;;;;;;;;;;33.90;50.90;;;;;;6245904;23;20301;-70
2022/04/09 07:34:06;;;;;;;;;;;32.00;52.70;;;;;;6218846;23;19948;-68
2022/04/09 07:36:31;;;;;;;;;;;31.00;54.80;;;;;;6245685;23;19908;-68
2022/04/09 07:38:57;;;;;;;;;;;29.90;56.90;;;;;;6246333;23;19931;-69
2022/04/09 07:41:23;;;;;;;;;;;28.80;59.00;;;;;;6245788;23;19982;-70
2022/04/09 07:43:49;;;;;;;;;;;28.00;60.50;;;;;;6246061;23;19904;-69
2022/04/09 07:46:15;;;;;;;;;;;27.30;63.50;;;;;;6246029;23;20315;-70
2022/04/09 07:48:40;;;;;;;;;;;26.90;65.00;;;;;;6245631;23;19957;-70
2022/04/09 07:51:06;;;;;;;;;;;26.70;65.80;;;;;;6244224;23;19908;-67
2022/04/09 07:53:32;;;;;;;;;;;26.00;67.70;;;;;;6243701;23;19911;-67
2022/04/09 07:55:58;;;;;;;;;;;25.50;70.70;;;;;;6215945;23;20173;-68
2022/04/09 07:58:24;;;;;;;;;;;25.80;70.40;;;;;;6244368;23;20026;-68
2022/04/09 08:00:50;;;;;;;;;;;25.90;70.00;;;;;;6244245;23;20275;-69
2022/04/09 08:03:16;;;;;;;;;;;25.90;69.80;;;;;;6244121;23;19904;-68
2022/04/09 08:05:42;;;;;;;;;;;25.90;71.10;;;;;;6244324;23;19914;-68
2022/04/09 08:08:08;;;;;;;;;;;25.90;70.30;;;;;;6244069;23;19907;-70
2022/04/09 08:10:34;;;;;;;;;;;25.80;70.80;;;;;;6244522;23;20218;-68
2022/04/09 08:13:00;;;;;;;;;;;25.40;70.80;;;;;;6244632;23;19904;-69
2022/04/09 08:15:26;;;;;;;;;;;25.10;73.20;;;;;;6244605;23;19982;-69
2022/04/09 08:17:57;;;;;;;;;;;25.40;72.70;;;;;;6245222;23;19904;-68
2022/04/09 08:20:23;;;;;;;;;;;24.80;72.90;;;;;;6245542;23;19938;-67
2022/04/09 08:22:49;;;;;;;;;;;24.50;74.40;;;;;;6245373;23;19903;-68
2022/04/09 08:25:16;;;;;;;;;;;24.60;75.10;;;;;;6244897;23;19986;-68
2022/04/09 08:27:43;;;;;;;;;;;24.60;74.50;;;;;;6244808;23;19915;-67
2022/04/09 08:30:10;;;;;;;;;;;24.60;74.50;;;;;;6218449;23;20305;-69
2022/04/09 08:32:36;;;;;;;;;;;24.70;75.20;;;;;;6245287;23;19950;-68
2022/04/09 08:35:02;;;;;;;;;;;24.70;75.60;;;;;;6245168;23;20228;-68
2022/04/09 08:37:28;;;;;;;;;;;24.80;75.20;;;;;;6217515;23;20212;-69
2022/04/09 08:39:57;;;;;;;;;;;24.40;76.40;;;;;;6245096;23;19904;-68
2022/04/09 08:42:23;;;;;;;;;;;24.30;77.20;;;;;;6245179;23;19942;-68
2022/04/09 08:44:49;;;;;;;;;;;24.20;76.80;;;;;;6218459;23;19904;-69
2022/04/09 08:47:15;;;;;;;;;;;24.20;76.60;;;;;;6245079;23;19904;-69
2022/04/09 08:49:48;;;;;;;;;;;24.10;77.20;;;;;;6244983;23;19907;-68
2022/04/09 08:52:15;;;;;;;;;;;23.90;77.50;;;;;;6244322;23;19919;-67
2022/04/09 08:54:41;;;;;;;;;;;23.80;78.60;;;;;;6244384;23;19911;-69
2022/04/09 08:57:07;;;;;;;;;;;23.60;79.40;;;;;;6244594;23;19904;-68
2022/04/09 08:59:33;;;;;;;;;;;23.80;79.20;;;;;;6217611;23;19979;-68
2022/04/09 09:01:59;;;;;;;;;;;24.10;78.90;;;;;;6244806;23;19904;-68
2022/04/09 09:04:25;;;;;;;;;;;23.90;78.40;;;;;;6244360;23;19904;-69
2022/04/09 09:06:51;;;;;;;;;;;23.70;79.10;;;;;;6244601;23;19911;-69
2022/04/09 09:09:27;;;;;;;;;;;23.50;79.70;;;;;;6245773;23;20002;-69
2022/04/09 09:11:52;;;;;;;;;;;23.20;80.50;;;;;;6244633;23;20300;-69
2022/04/09 09:14:26;;;;;;;;;;;23.20;80.90;;;;;;6244314;23;19904;-68
2022/04/09 09:16:52;;;;;;;;;;;23.00;81.50;;;;;;6245202;23;19915;-69
2022/04/09 09:19:17;;;;;;;;;;;23.10;81.30;;;;;;6244517;23;19904;-69
2022/04/09 09:21:51;;;;;;;;;;;23.10;81.20;;;;;;6245160;23;19946;-69
2022/04/09 09:24:17;;;;;;;;;;;22.90;82.00;;;;;;6246567;23;20249;-68
2022/04/09 09:26:44;;;;;;;;;;;22.80;82.10;;;;;;6246869;23;19919;-69
2022/04/09 09:29:13;;;;;;;;;;;22.80;81.60;;;;;;6246719;23;20002;-68
2022/04/09 09:31:43;;;;;;;;;;;22.00;84.60;;;;;;6247379;23;19907;-69
2022/04/09 09:34:12;;;;;;;;;;;22.20;84.50;;;;;;6246814;23;19956;-68
2022/04/09 09:36:40;;;;;;;;;;;22.10;84.80;;;;;;6246572;23;19957;-66
2022/04/09 09:39:07;;;;;;;;;;;22.30;84.90;;;;;;6246494;23;19935;-66
2022/04/09 09:41:33;;;;;;;;;;;22.50;84.60;;;;;;6246053;23;20311;-69
2022/04/09 09:44:02;;;;;;;;;;;22.40;85.00;;;;;;6245918;23;20174;-67
2022/04/09 09:46:28;;;;;;;;;;;22.50;85.30;;;;;;6246066;23;20301;-68
2022/04/09 09:48:54;;;;;;;;;;;22.60;85.40;;;;;;6245415;23;19919;-68
2022/04/09 09:51:23;;;;;;;;;;;22.40;86.30;;;;;;6245685;23;19911;-70
2022/04/09 09:53:49;;;;;;;;;;;22.40;86.50;;;;;;6218212;23;20326;-69
2022/04/09 09:56:32;;;;;;;;;;;22.50;87.30;;;;;;6245536;23;19935;-65
2022/04/09 09:58:59;;;;;;;;;;;22.40;87.10;;;;;;6245154;23;19948;-69
2022/04/09 10:01:26;;;;;;;;;;;22.20;88.20;;;;;;6244946;23;20233;-66
2022/04/09 10:03:53;;;;;;;;;;;22.00;89.30;;;;;;6244109;23;19930;-69
2022/04/09 10:06:19;;;;;;;;;;;22.00;89.80;;;;;;6245292;23;19982;-68
2022/04/09 10:08:47;;;;;;;;;;;22.20;89.30;;;;;;6245584;23;19912;-68
2022/04/09 10:11:14;;;;;;;;;;;22.10;89.60;;;;;;6246278;23;19922;-70
2022/04/09 10:13:43;;;;;;;;;;;22.10;90.20;;;;;;6245779;23;19903;-69
2022/04/09 10:16:10;;;;;;;;;;;22.20;90.20;;;;;;6245082;23;19904;-70
2022/04/09 10:18:36;;;;;;;;;;;22.30;90.40;;;;;;6244643;23;20208;-69
2022/04/09 10:21:02;;;;;;;;;;;22.40;90.90;;;;;;6217269;23;19961;-69
2022/04/09 10:23:32;;;;;;;;;;;22.20;90.90;;;;;;6244768;23;20297;-70
2022/04/09 10:25:59;;;;;;;;;;;22.20;90.70;;;;;;6245750;23;20197;-69
2022/04/09 10:28:29;;;;;;;;;;;22.00;91.20;;;;;;6245523;23;20277;-69
2022/04/09 10:30:55;;;;;;;;;;;22.00;90.80;;;;;;6245275;23;20276;-69
2022/04/09 10:33:24;;;;;;;;;;;21.80;91.20;;;;;;6217872;23;19966;-69
2022/04/09 10:35:50;;;;;;;;;;;21.90;91.30;;;;;;6245300;23;19903;-69
2022/04/09 10:38:20;;;;;;;;;;;21.90;91.10;;;;;;6245261;23;19904;-70
2022/04/09 10:40:49;;;;;;;;;;;21.80;91.40;;;;;;6245454;23;19903;-69
2022/04/09 10:43:27;;;;;;;;;;;21.80;91.80;;;;;;6244909;23;19910;-69
2022/04/09 10:46:05;;;;;;;;;;;21.70;91.80;;;;;;6245230;23;19903;-69
2022/04/09 10:48:32;;;;;;;;;;;21.70;92.00;;;;;;6245562;23;19912;-69
2022/04/09 10:50:59;;;;;;;;;;;21.90;91.80;;;;;;6245356;23;20288;-69
2022/04/09 10:53:26;;;;;;;;;;;21.90;91.60;;;;;;6218637;23;19903;-69
2022/04/09 10:56:11;;;;;;;;;;;21.80;91.90;;;;;;6245423;23;19915;-68
2022/04/09 10:58:55;;;;;;;;;;;21.80;92.10;;;;;;6245451;23;20284;-68
2022/04/09 11:01:39;;;;;;;;;;;21.70;92.40;;;;;;6245255;23;20299;-68
2022/04/09 11:04:24;;;;;;;;;;;21.80;92.40;;;;;;6245333;23;20067;-69
2022/04/09 11:07:00;;;;;;;;;;;21.90;92.40;;;;;;6245163;23;19959;-69
2022/04/09 11:09:44;;;;;;;;;;;21.80;92.90;;;;;;6245013;23;19931;-68
2022/04/09 11:12:10;;;;;;;;;;;22.00;92.10;;;;;;6245962;23;19985;-68
2022/04/09 11:14:55;;;;;;;;;;;22.00;91.90;;;;;;6245153;23;19993;-68
2022/04/09 11:17:24;;;;;;;;;;;21.90;92.40;;;;;;6245492;23;19988;-69
2022/04/09 11:19:50;;;;;;;;;;;21.90;92.50;;;;;;6245881;23;19954;-69
2022/04/09 11:22:16;;;;;;;;;;;22.10;92.00;;;;;;6245967;23;19904;-69
2022/04/09 11:24:42;;;;;;;;;;;22.00;92.20;;;;;;6246079;23;19908;-68
2022/04/09 11:27:10;;;;;;;;;;;22.00;92.30;;;;;;6246683;23;20341;-69
2022/04/09 11:29:37;;;;;;;;;;;22.10;92.10;;;;;;6245473;23;20325;-70
2022/04/09 11:32:03;;;;;;;;;;;22.00;92.20;;;;;;6245868;23;19912;-69
2022/04/09 11:34:45;;;;;;;;;;;21.90;92.60;;;;;;6245864;23;19973;-70
2022/04/09 11:37:12;;;;;;;;;;;22.10;92.60;;;;;;6245684;23;20041;-70
2022/04/09 11:39:41;;;;;;;;;;;22.00;92.80;;;;;;6245792;23;19904;-68
2022/04/09 11:42:07;;;;;;;;;;;22.10;92.90;;;;;;6246263;23;19950;-69
2022/04/09 11:44:33;;;;;;;;;;;22.00;92.70;;;;;;6246035;23;20321;-70
2022/04/09 11:47:13;;;;;;;;;;;21.90;93.00;;;;;;6245626;23;19986;-70
2022/04/09 11:49:40;;;;;;;;;;;21.90;93.50;;;;;;6245842;23;19911;-69
2022/04/09 11:52:07;;;;;;;;;;;21.80;94.00;;;;;;6245464;23;20238;-70
2022/04/09 11:54:33;;;;;;;;;;;21.70;94.60;;;;;;6245862;23;20205;-70
2022/04/09 11:57:00;;;;;;;;;;;21.90;94.70;;;;;;6246524;23;20359;-69
2022/04/09 11:59:26;;;;;;;;;;;21.90;94.80;;;;;;6245886;23;19907;-69
2022/04/09 12:01:52;;;;;;;;;;;21.90;94.70;;;;;;6246152;23;19908;-68
2022/04/09 12:04:18;;;;;;;;;;;21.70;95.00;;;;;;6246276;23;19986;-69
2022/04/09 12:06:44;;;;;;;;;;;22.00;94.90;;;;;;6246361;23;19983;-69
2022/04/09 12:09:10;;;;;;;;;;;22.00;94.80;;;;;;6246514;23;20259;-69
2022/04/09 12:11:39;;;;;;;;;;;21.90;95.00;;;;;;6246057;23;19997;-70
2022/04/09 12:14:09;;;;;;;;;;;21.90;95.70;;;;;;6246165;23;19958;-70
2022/04/09 12:16:39;;;;;;;;;;;21.90;95.80;;;;;;6246207;23;19926;-69
2022/04/09 12:19:08;;;;;;;;;;;21.90;96.30;;;;;;6246304;23;19935;-68
2022/04/09 12:21:47;;;;;;;;;;;22.20;96.00;;;;;;5070376;28;19920;-69
2022/04/09 12:24:12;;;;;;;;;;;22.30;96.10;;;;;;5070407;28;19919;-70
2022/04/09 12:26:39;;;;;;;;;;;22.30;95.90;;;;;;5071113;28;20352;-68
2022/04/09 12:29:08;;;;;;;;;;;22.30;95.30;;;;;;5070670;28;19909;-69
2022/04/09 12:31:35;;;;;;;;;;;22.40;94.80;;;;;;5071201;28;19913;-70
2022/04/09 12:34:01;;;;;;;;;;;22.30;94.70;;;;;;5069037;28;19915;-70
2022/04/09 12:36:27;;;;;;;;;;;22.40;94.10;;;;;;5070767;28;20353;-70
2022/04/09 12:38:52;;;;;;;;;;;22.40;93.90;;;;;;5070283;28;19909;-70
2022/04/09 12:41:18;;;;;;;;;;;22.60;93.80;;;;;;5070462;28;20352;-70
2022/04/09 12:43:46;;;;;;;;;;;22.70;93.00;;;;;;5068690;28;19909;-70
2022/04/09 12:46:15;;;;;;;;;;;22.60;92.00;;;;;;5070406;28;19908;-69
2022/04/09 12:48:45;;;;;;;;;;;22.50;90.50;;;;;;5070101;28;20336;-70
2022/04/09 12:51:15;;;;;;;;;;;22.30;89.90;;;;;;5069981;28;19916;-70
2022/04/09 12:53:41;;;;;;;;;;;22.30;89.40;;;;;;5070205;28;19908;-70
2022/04/09 12:56:11;;;;;;;;;;;22.50;88.30;;;;;;5069882;28;19908;-69
2022/04/09 12:58:37;;;;;;;;;;;22.60;87.10;;;;;;5070115;28;19909;-69
2022/04/09 13:01:04;;;;;;;;;;;22.80;87.30;;;;;;5068398;28;19916;-69
2022/04/09 13:03:30;;;;;;;;;;;22.70;86.00;;;;;;5069717;28;19919;-69
2022/04/09 13:05:56;;;;;;;;;;;22.70;85.40;;;;;;5069951;28;20011;-68
2022/04/09 13:08:22;;;;;;;;;;;22.50;86.30;;;;;;5069543;28;19909;-67
2022/04/09 13:10:48;;;;;;;;;;;22.40;87.60;;;;;;5069502;28;19983;-68
2022/04/09 13:13:14;;;;;;;;;;;22.20;88.00;;;;;;5069420;28;19909;-68
2022/04/09 13:15:40;;;;;;;;;;;22.10;89.00;;;;;;5069548;28;19908;-69
2022/04/09 13:18:06;;;;;;;;;;;21.90;90.00;;;;;;5069393;28;20430;-69
2022/04/09 13:20:32;;;;;;;;;;;22.00;90.10;;;;;;5079350;28;19960;-69
2022/04/09 13:22:58;;;;;;;;;;;22.10;90.30;;;;;;5090106;28;19909;-70
2022/04/09 13:25:23;;;;;;;;;;;22.20;89.80;;;;;;5089645;28;20348;-70
2022/04/09 13:27:51;;;;;;;;;;;22.10;90.00;;;;;;5089724;28;19909;-69
2022/04/09 13:30:17;;;;;;;;;;;22.30;89.40;;;;;;5089489;28;19908;-69
2022/04/09 13:32:43;;;;;;;;;;;22.40;88.80;;;;;;5078389;28;19909;-69
2022/04/09 13:35:09;;;;;;;;;;;22.40;88.90;;;;;;5076297;28;19909;-69
2022/04/09 13:37:34;;;;;;;;;;;22.30;88.70;;;;;;5076206;28;20372;-69
2022/04/09 13:40:00;;;;;;;;;;;22.40;87.90;;;;;;5075644;28;19920;-68
2022/04/09 13:42:26;;;;;;;;;;;22.50;87.20;;;;;;5075954;28;20028;-68
2022/04/09 13:44:52;;;;;;;;;;;22.60;87.10;;;;;;5076254;28;19928;-69
2022/04/09 13:47:18;;;;;;;;;;;22.60;86.70;;;;;;5075479;28;19931;-66
2022/04/09 13:49:45;;;;;;;;;;;22.70;86.90;;;;;;5074988;28;19909;-69
2022/04/09 13:52:11;;;;;;;;;;;22.80;87.10;;;;;;5068279;28;19920;-66
2022/04/09 13:54:37;;;;;;;;;;;22.70;87.30;;;;;;5075759;28;19912;-68
2022/04/09 13:57:04;;;;;;;;;;;22.70;87.50;;;;;;5061087;28;19917;-68
2022/04/09 13:59:30;;;;;;;;;;;22.70;87.60;;;;;;5055106;28;20390;-70
2022/04/09 14:01:56;;;;;;;;;;;22.70;87.60;;;;;;5055705;28;19963;-70
2022/04/09 14:04:22;;;;;;;;;;;22.70;88.30;;;;;;5055029;28;19920;-70
2022/04/09 14:06:48;;;;;;;;;;;22.80;88.60;;;;;;5055570;28;19931;-69
2022/04/09 14:09:14;;;;;;;;;;;22.90;88.80;;;;;;5055192;28;20357;-70
2022/04/09 14:11:40;;;;;;;;;;;22.90;88.80;;;;;;5055189;28;19991;-70
2022/04/09 14:14:06;;;;;;;;;;;22.80;89.00;;;;;;5054927;28;19916;-70
2022/04/09 14:16:32;;;;;;;;;;;22.80;88.60;;;;;;5054943;28;20022;-69